createdAt,value
2023-02-03T00:00:39.370Z,98804.52
2023-02-03T00:01:39.477Z,98808.91
2023-02-03T00:02:39.507Z,98809.42
2023-02-03T00:03:39.631Z,98810.27
2023-02-03T00:04:39.481Z,98810.73
2023-02-03T00:05:40.077Z,98809.16
2023-02-03T00:06:39.989Z,98804.38
2023-02-03T00:07:39.740Z,98806.42
2023-02-03T00:08:39.580Z,98806.19
2023-02-03T00:09:39.786Z,98813.49
2023-02-03T00:10:39.949Z,98813.96
2023-02-03T00:11:39.584Z,98814.61
2023-02-03T00:12:39.626Z,98819.16
2023-02-03T00:13:39.627Z,98817.31
2023-02-03T00:14:40.344Z,98817.98
2023-02-03T00:15:40.153Z,98823.85
2023-02-03T00:16:40.262Z,98825.73
2023-02-03T00:17:40.196Z,98827.81
2023-02-03T00:18:40.206Z,98827.06
2023-02-03T00:19:40.209Z,98827.46
2023-02-03T00:20:40.477Z,98822.91
2023-02-03T00:21:40.226Z,98826.14
2023-02-03T00:22:40.281Z,98826.45
2023-02-03T00:23:43.392Z,98828.92
2023-02-03T00:24:40.284Z,98828.78
2023-02-03T00:25:40.765Z,98828.17
2023-02-03T00:26:41.223Z,98829.77
2023-02-03T00:27:40.493Z,98829.52
2023-02-03T00:28:40.633Z,98829.44
2023-02-03T00:29:40.433Z,98824.35
2023-02-03T00:30:40.387Z,98834.02
2023-02-03T00:31:40.542Z,98833.34
2023-02-03T00:32:40.500Z,98837.87
2023-02-03T00:33:40.463Z,98838.09
2023-02-03T00:34:40.457Z,98834.75
2023-02-03T00:35:41.035Z,98844.52
2023-02-03T00:36:42.967Z,98840.92
2023-02-03T00:37:41.076Z,98844.07
2023-02-03T00:38:41.118Z,98843.38
2023-02-03T00:39:41.228Z,98843.77
2023-02-03T00:40:41.157Z,98843.16
2023-02-03T00:41:41.395Z,98853.77
2023-02-03T00:42:41.313Z,98850.77
2023-02-03T00:43:41.200Z,98852.59
2023-02-03T00:44:41.164Z,98856.27
2023-02-03T00:45:41.202Z,98857.16
2023-02-03T00:46:41.329Z,98857.59
2023-02-03T00:47:41.292Z,98849.24
2023-02-03T00:48:41.262Z,98859.08
2023-02-03T00:49:41.305Z,98859.95
2023-02-03T00:50:41.331Z,98858.61
2023-02-03T00:51:41.351Z,98856.94
2023-02-03T00:52:41.453Z,98854.14
2023-02-03T00:53:41.356Z,98857.91
2023-02-03T00:54:41.311Z,98857.85
2023-02-03T00:55:42.875Z,98859.41
2023-02-03T00:56:41.353Z,98864.07
2023-02-03T00:57:41.416Z,98864.5
2023-02-03T00:58:41.678Z,98855.5
2023-02-03T00:59:41.374Z,98863.33
2023-02-03T01:00:41.438Z,98858.29
2023-02-03T01:01:41.605Z,98866.45
2023-02-03T01:02:41.542Z,98862.74
2023-02-03T01:03:41.447Z,98864.21
2023-02-03T01:04:41.442Z,98867.97
2023-02-03T01:05:41.490Z,98867.58
2023-02-03T01:06:41.728Z,98869.89
2023-02-03T01:07:41.668Z,98868.77
2023-02-03T01:08:42.013Z,98860.19
2023-02-03T01:09:41.671Z,98865.48
2023-02-03T01:10:41.563Z,98859.53
2023-02-03T01:11:41.661Z,98860.03
2023-02-03T01:12:41.576Z,98859.59
2023-02-03T01:13:41.626Z,98863.92
2023-02-03T01:14:41.599Z,98862.76
2023-02-03T01:15:47.519Z,98862.14
2023-02-03T01:16:44.506Z,98858.47
2023-02-03T01:17:44.229Z,98865.15
2023-02-03T01:18:44.932Z,98863.89
2023-02-03T01:19:44.189Z,98868.11
2023-02-03T01:20:44.417Z,98865.55
2023-02-03T01:21:44.278Z,98861.69
2023-02-03T01:22:44.237Z,98861.88
2023-02-03T01:23:44.749Z,98861.58
2023-02-03T01:24:44.246Z,98855.48
2023-02-03T01:25:44.251Z,98855.74
2023-02-03T01:26:44.437Z,98851.02
2023-02-03T01:27:44.434Z,98844.92
2023-02-03T01:28:44.350Z,98849.62
2023-02-03T01:29:44.367Z,98848.81
2023-02-03T01:30:44.544Z,98844.12
2023-02-03T01:31:44.563Z,98841.69
2023-02-03T01:32:44.401Z,98846.26
2023-02-03T01:33:45.054Z,98844.8
2023-02-03T01:34:44.379Z,98844.52
2023-02-03T01:35:44.407Z,98850.05
2023-02-03T01:36:44.460Z,98847.97
2023-02-03T01:37:44.420Z,98843.23
2023-02-03T01:38:45.088Z,98852.79
2023-02-03T01:39:44.551Z,98848.57
2023-02-03T01:40:44.736Z,98847.23
2023-02-03T01:41:44.528Z,98848.52
2023-02-03T01:42:44.487Z,98849.22
2023-02-03T01:43:49.329Z,98848.36
2023-02-03T01:44:47.196Z,98846.73
2023-02-03T01:45:46.115Z,98846.98
2023-02-03T01:46:48.336Z,98848.61
2023-02-03T01:47:48.358Z,98848.66
2023-02-03T01:48:46.223Z,98851.8
2023-02-03T01:49:52.720Z,98849.45
2023-02-03T01:50:49.506Z,98851.28
2023-02-03T01:51:49.951Z,98852.72
2023-02-03T01:52:53.506Z,98855.67
2023-02-03T01:53:52.179Z,98859.4
2023-02-03T01:54:51.972Z,98857.84
2023-02-03T01:55:50.999Z,98856.59
2023-02-03T01:56:58.872Z,98862.83
2023-02-03T01:57:52.467Z,98864.33
2023-02-03T01:58:51.090Z,98865.09
2023-02-03T01:59:51.619Z,98865.73
2023-02-03T02:00:50.909Z,98866.28
2023-02-03T02:01:51.837Z,98862.39
2023-02-03T02:02:50.993Z,98862.89
2023-02-03T02:03:53.363Z,98868.34
2023-02-03T02:04:55.025Z,98868.27
2023-02-03T02:06:51.860Z,98865.7
2023-02-03T02:07:51.985Z,98866.69
2023-02-03T02:08:53.052Z,98861.8
2023-02-03T02:09:52.125Z,98864.92
2023-02-03T02:10:52.001Z,98863.9
2023-02-03T02:11:52.012Z,98862.86
2023-02-03T02:12:53.035Z,98865.33
2023-02-03T02:13:53.480Z,98860.03
2023-02-03T02:14:51.987Z,98862.72
2023-02-03T02:17:01.278Z,98862.62
2023-02-03T02:37:58.906Z,98893.28
2023-02-03T02:39:04.751Z,98889.03
2023-02-03T02:40:00.133Z,98890.12
2023-02-03T02:41:03.153Z,98890.09
2023-02-03T02:43:07.931Z,98885.53
2023-02-03T02:45:14.237Z,98878.28
2023-02-03T02:46:14.917Z,98874.16
2023-02-03T02:47:18.332Z,98878.81
2023-02-03T02:49:20.846Z,98884.33
2023-02-03T02:50:21.500Z,98890.43
2023-02-03T02:51:18.289Z,98890.95
2023-02-03T02:52:18.778Z,98892.19
2023-02-03T02:53:20.120Z,98895.16
2023-02-03T02:54:21.599Z,98894.83
2023-02-03T02:55:23.568Z,98895.31
2023-02-03T02:56:20.790Z,98892.25
2023-02-03T02:57:21.420Z,98894.22
2023-02-03T02:58:21.452Z,98891.25
2023-02-03T02:59:20.498Z,98885.48
2023-02-03T03:00:20.593Z,98885.66
2023-02-03T03:01:20.463Z,98884.77
2023-02-03T03:02:20.287Z,98887.3
2023-02-03T03:03:21.432Z,98887.41
2023-02-03T03:04:23.671Z,98881.89
2023-02-03T03:05:20.565Z,98881.78
2023-02-03T03:06:29.186Z,98880.58
2023-02-03T03:07:24.123Z,98885.94
2023-02-03T03:08:23.432Z,98878.08
2023-02-03T03:09:30.217Z,98878.95
2023-02-03T03:10:23.162Z,98879.36
2023-02-03T03:11:23.922Z,98879.41
2023-02-03T03:12:28.180Z,98879.52
2023-02-03T03:13:27.441Z,98880.72
2023-02-03T03:14:27.348Z,98883.38
2023-02-03T03:15:27.476Z,98878
2023-02-03T03:16:26.648Z,98880.56
2023-02-03T03:17:28.126Z,98880.53
2023-02-03T03:18:26.855Z,98884.92
2023-02-03T03:19:26.986Z,98885.79
2023-02-03T03:20:26.463Z,98886.58
2023-02-03T03:21:31.273Z,98886.28
2023-02-03T03:22:30.049Z,98890.97
2023-02-03T03:23:30.228Z,98888.72
2023-02-03T03:24:31.113Z,98885.7
2023-02-03T03:25:31.720Z,98883.14
2023-02-03T03:26:32.632Z,98888.83
2023-02-03T03:27:36.527Z,98884.16
2023-02-03T03:28:37.787Z,98888.38
2023-02-03T03:29:40.737Z,98888.64
2023-02-03T03:30:38.859Z,98885.34
2023-02-03T03:31:38.276Z,98889.33
2023-02-03T03:32:38.057Z,98894.03
2023-02-03T03:33:37.921Z,98893.89
2023-02-03T03:34:37.734Z,98895.41
2023-02-03T03:35:41.299Z,98897.86
2023-02-03T03:36:44.395Z,98902.74
2023-02-03T03:37:44.737Z,98902.25
2023-02-03T03:38:43.983Z,98898.54
2023-02-03T03:40:45.843Z,98905.08
2023-02-03T03:42:50.409Z,98909.07
2023-02-03T03:43:47.207Z,98906.03
2023-02-03T03:44:54.187Z,98908.3
2023-02-03T03:46:59.202Z,98904.7
2023-02-03T03:49:02.574Z,98910.06
2023-02-03T03:50:00.505Z,98905.47
2023-02-03T03:52:04.034Z,98905.94
2023-02-03T03:53:02.375Z,98905.61
2023-02-03T03:54:04.701Z,98911.38
2023-02-03T03:55:02.954Z,98908.55
2023-02-03T03:56:02.938Z,98904.19
2023-02-03T03:57:05.420Z,98903.53
2023-02-03T03:59:03.191Z,98906.92
2023-02-03T04:00:04.783Z,98909.16
2023-02-03T04:01:03.603Z,98904.98
2023-02-03T04:02:03.013Z,98904.58
2023-02-03T04:04:06.770Z,98909.65
2023-02-03T04:05:05.638Z,98910.78
2023-02-03T04:06:05.195Z,98905.54
2023-02-03T04:07:04.781Z,98907.42
2023-02-03T04:08:04.817Z,98899.81
2023-02-03T04:09:04.898Z,98899.75
2023-02-03T04:10:07.056Z,98900.72
2023-02-03T04:11:05.285Z,98902.15
2023-02-03T04:12:05.287Z,98904.17
2023-02-03T04:13:05.397Z,98905.02
2023-02-03T04:14:04.870Z,98904.47
2023-02-03T04:15:05.206Z,98903.58
2023-02-03T04:16:05.440Z,98905.7
2023-02-03T04:17:05.132Z,98905.45
2023-02-03T04:18:05.216Z,98900.11
2023-02-03T04:19:06.967Z,98902.92
2023-02-03T04:20:05.337Z,98905.05
2023-02-03T04:21:05.151Z,98901.56
2023-02-03T04:22:05.140Z,98904.27
2023-02-03T04:23:04.967Z,98905.52
2023-02-03T04:24:05.246Z,98903.56
2023-02-03T04:25:05.490Z,98905.39
2023-02-03T04:26:05.020Z,98904.95
2023-02-03T04:27:05.538Z,98904.83
2023-02-03T04:28:05.211Z,98901.72
2023-02-03T04:29:05.047Z,98896.17
2023-02-03T04:30:05.644Z,98901.19
2023-02-03T04:31:05.231Z,98899.98
2023-02-03T04:32:05.388Z,98900.86
2023-02-03T04:33:05.109Z,98898.39
2023-02-03T04:34:05.494Z,98901.47
2023-02-03T04:35:06.083Z,98899.73
2023-02-03T04:36:05.465Z,98899.47
2023-02-03T04:37:05.202Z,98894.77
2023-02-03T04:38:05.167Z,98902.92
2023-02-03T04:39:05.204Z,98898.69
2023-02-03T04:40:05.608Z,98902.23
2023-02-03T04:41:05.183Z,98900.55
2023-02-03T04:42:05.269Z,98900.45
2023-02-03T04:43:05.848Z,98903.38
2023-02-03T04:44:05.233Z,98901.81
2023-02-03T04:45:06.034Z,98901.95
2023-02-03T04:46:05.326Z,98903.55
2023-02-03T04:47:05.264Z,98902.67
2023-02-03T04:48:05.497Z,98899.55
2023-02-03T04:49:05.362Z,98899.91
2023-02-03T04:50:05.865Z,98901.81
2023-02-03T04:51:07.552Z,98907.08
2023-02-03T04:52:05.711Z,98907.64
2023-02-03T04:53:05.363Z,98904.16
2023-02-03T04:54:05.577Z,98908.77
2023-02-03T04:55:05.817Z,98908.61
2023-02-03T04:56:05.612Z,98913.28
2023-02-03T04:57:05.877Z,98909.2
2023-02-03T04:58:05.438Z,98911.03
2023-02-03T04:59:05.509Z,98909.45
2023-02-03T05:00:06.072Z,98913.47
2023-02-03T05:01:06.930Z,98907.61
2023-02-03T05:02:05.733Z,98914.48
2023-02-03T05:03:05.576Z,98911.13
2023-02-03T05:04:05.531Z,98916.06
2023-02-03T05:05:05.870Z,98915.16
2023-02-03T05:06:05.893Z,98912.81
2023-02-03T05:07:05.566Z,98913.8
2023-02-03T05:08:05.900Z,98915.92
2023-02-03T05:09:05.625Z,98913.63
2023-02-03T05:10:05.917Z,98908.94
2023-02-03T05:11:06.661Z,98914.22
2023-02-03T05:12:05.930Z,98908.17
2023-02-03T05:13:05.658Z,98910.22
2023-02-03T05:14:05.714Z,98912.68
2023-02-03T05:15:06.272Z,98913.05
2023-02-03T05:16:06.190Z,98915.98
2023-02-03T05:17:05.795Z,98911.62
2023-02-03T05:18:05.750Z,98911.62
2023-02-03T05:19:05.709Z,98908.64
2023-02-03T05:20:06.367Z,98914.52
2023-02-03T05:21:05.895Z,98912.88
2023-02-03T05:22:05.896Z,98911.7
2023-02-03T05:23:05.773Z,98910.29
2023-02-03T05:24:06.068Z,98908.2
2023-02-03T05:25:06.261Z,98910.28
2023-02-03T05:26:05.804Z,98910.08
2023-02-03T05:27:05.792Z,98913.42
2023-02-03T05:28:05.975Z,98915.35
2023-02-03T05:29:05.903Z,98915.7
2023-02-03T05:30:06.525Z,98913.5
2023-02-03T05:31:06.079Z,98916.12
2023-02-03T05:32:06.042Z,98910.98
2023-02-03T05:33:05.916Z,98919.41
2023-02-03T05:34:06.022Z,98913.73
2023-02-03T05:35:06.385Z,98909.09
2023-02-03T05:36:06.441Z,98910.73
2023-02-03T05:37:05.941Z,98911.39
2023-02-03T05:38:06.014Z,98908.95
2023-02-03T05:39:05.964Z,98913.13
2023-02-03T05:40:06.575Z,98909.21
2023-02-03T05:41:06.031Z,98910.48
2023-02-03T05:42:06.039Z,98914.2
2023-02-03T05:43:06.123Z,98914.89
2023-02-03T05:44:06.223Z,98914.03
2023-02-03T05:45:06.361Z,98917.18
2023-02-03T05:46:07.276Z,98914.39
2023-02-03T05:47:06.174Z,98916.08
2023-02-03T05:48:06.814Z,98914.3
2023-02-03T05:49:06.646Z,98913.59
2023-02-03T05:50:06.782Z,98909.09
2023-02-03T05:51:06.568Z,98910.56
2023-02-03T05:52:06.638Z,98910.37
2023-02-03T05:53:07.007Z,98912.92
2023-02-03T05:54:06.858Z,98913.25
2023-02-03T05:55:06.973Z,98915.13
2023-02-03T05:56:06.879Z,98916.09
2023-02-03T05:57:06.791Z,98918.79
2023-02-03T05:58:06.684Z,98924.28
2023-02-03T05:59:06.950Z,98925.48
2023-02-03T06:00:07.442Z,98923.07
2023-02-03T06:01:06.766Z,98922.69
2023-02-03T06:02:06.764Z,98918.66
2023-02-03T06:03:07.077Z,98923.52
2023-02-03T06:04:07.023Z,98922.97
2023-02-03T06:05:07.013Z,98922.7
2023-02-03T06:06:07.005Z,98924.05
2023-02-03T06:07:06.865Z,98925.5
2023-02-03T06:08:09.931Z,98926.41
2023-02-03T06:09:07.869Z,98925.77
2023-02-03T06:10:07.172Z,98921.9
2023-02-03T06:11:06.891Z,98926.64
2023-02-03T06:12:07.090Z,98925.61
2023-02-03T06:13:11.382Z,98927.14
2023-02-03T06:14:07.920Z,98928.75
2023-02-03T06:15:07.957Z,98934.58
2023-02-03T06:16:07.792Z,98930.53
2023-02-03T06:17:07.744Z,98932.16
2023-02-03T06:18:08.104Z,98932.16
2023-02-03T06:19:07.765Z,98936.33
2023-02-03T06:20:08.823Z,98928.98
2023-02-03T06:21:07.688Z,98931.77
2023-02-03T06:22:08.360Z,98930.12
2023-02-03T06:23:07.720Z,98929.92
2023-02-03T06:24:07.796Z,98929.38
2023-02-03T06:25:08.365Z,98932.2
2023-02-03T06:26:07.786Z,98926.22
2023-02-03T06:27:07.891Z,98933.62
2023-02-03T06:28:07.917Z,98930.48
2023-02-03T06:29:07.873Z,98929.69
2023-02-03T06:30:08.400Z,98928.56
2023-02-03T06:31:08.082Z,98931.56
2023-02-03T06:32:08.600Z,98932.88
2023-02-03T06:33:08.009Z,98927.64
2023-02-03T06:34:08.526Z,98924.29
2023-02-03T06:35:08.305Z,98927.17
2023-02-03T06:36:08.319Z,98924.95
2023-02-03T06:37:08.101Z,98927.48
2023-02-03T06:38:08.005Z,98924.67
2023-02-03T06:39:08.671Z,98922.8
2023-02-03T06:40:09.800Z,98921.31
2023-02-03T06:41:08.734Z,98919.67
2023-02-03T06:42:08.810Z,98923.07
2023-02-03T06:43:08.758Z,98919.7
2023-02-03T06:44:08.755Z,98918.18
2023-02-03T06:45:09.411Z,98922.01
2023-02-03T06:46:08.995Z,98919.47
2023-02-03T06:47:08.814Z,98918.89
2023-02-03T06:48:08.824Z,98925.42
2023-02-03T06:49:08.958Z,98924.16
2023-02-03T06:50:09.755Z,98917.94
2023-02-03T06:51:08.877Z,98919.57
2023-02-03T06:52:08.931Z,98919.12
2023-02-03T06:53:09.119Z,98924.97
2023-02-03T06:54:10.140Z,98921.62
2023-02-03T06:55:09.074Z,98922.65
2023-02-03T06:56:08.962Z,98923.53
2023-02-03T06:57:08.982Z,98924.05
2023-02-03T06:58:09.158Z,98926.7
2023-02-03T06:59:09.009Z,98930.36
2023-02-03T07:00:09.824Z,98930.75
2023-02-03T07:01:09.075Z,98927.45
2023-02-03T07:02:10.508Z,98929.07
2023-02-03T07:03:09.153Z,98930.22
2023-02-03T07:04:09.074Z,98924.58
2023-02-03T07:05:09.140Z,98928.99
2023-02-03T07:06:09.104Z,98927.17
2023-02-03T07:07:09.130Z,98926.91
2023-02-03T07:08:09.209Z,98926.45
2023-02-03T07:09:09.148Z,98924.49
2023-02-03T07:10:09.552Z,98922.17
2023-02-03T07:11:09.413Z,98921.45
2023-02-03T07:12:09.942Z,98919.34
2023-02-03T07:13:09.430Z,98918.95
2023-02-03T07:14:09.256Z,98924.43
2023-02-03T07:15:09.650Z,98921.31
2023-02-03T07:16:09.342Z,98921.3
2023-02-03T07:17:09.374Z,98921.45
2023-02-03T07:18:09.324Z,98917.53
2023-02-03T07:19:09.458Z,98919.86
2023-02-03T07:20:09.670Z,98919.88
2023-02-03T07:21:09.422Z,98919.56
2023-02-03T07:22:10.496Z,98919.93
2023-02-03T07:23:09.402Z,98919.59
2023-02-03T07:24:09.516Z,98918.67
2023-02-03T07:25:09.531Z,98916.79
2023-02-03T07:26:10.327Z,98919.41
2023-02-03T07:27:09.485Z,98916.56
2023-02-03T07:28:09.627Z,98918.44
2023-02-03T07:29:09.554Z,98914.91
2023-02-03T07:30:10.024Z,98913.56
2023-02-03T07:31:09.621Z,98915.45
2023-02-03T07:32:09.645Z,98914.05
2023-02-03T07:33:09.554Z,98914.31
2023-02-03T07:34:09.629Z,98915.09
2023-02-03T07:35:09.603Z,98917.83
2023-02-03T07:36:10.115Z,98915.2
2023-02-03T07:37:09.861Z,98914.36
2023-02-03T07:38:09.660Z,98910.44
2023-02-03T07:39:09.686Z,98912.1
2023-02-03T07:40:11.132Z,98917.86
2023-02-03T07:41:09.729Z,98912.72
2023-02-03T07:42:09.742Z,98914.3
2023-02-03T07:43:09.707Z,98915.36
2023-02-03T07:44:09.902Z,98912.38
2023-02-03T07:45:10.231Z,98914.78
2023-02-03T07:46:09.846Z,98916.94
2023-02-03T07:47:10.490Z,98911.75
2023-02-03T07:48:10.269Z,98910.9
2023-02-03T07:49:10.491Z,98913.37
2023-02-03T07:50:10.759Z,98914.45
2023-02-03T07:51:09.826Z,98914.54
2023-02-03T07:52:09.868Z,98912.8
2023-02-03T07:53:09.864Z,98913.81
2023-02-03T07:54:10.127Z,98912.41
2023-02-03T07:55:09.947Z,98915.42
2023-02-03T07:56:09.910Z,98913.38
2023-02-03T07:57:09.930Z,98914.72
2023-02-03T07:58:09.992Z,98914.81
2023-02-03T07:59:10.109Z,98916.45
2023-02-03T08:00:11.563Z,98918.13
2023-02-03T08:01:14.674Z,98915.19
2023-02-03T08:02:10.921Z,98910.92
2023-02-03T08:03:10.912Z,98913.67
2023-02-03T08:04:11.150Z,98915.14
2023-02-03T08:05:11.388Z,98912.16
2023-02-03T08:06:10.990Z,98911.28
2023-02-03T08:07:10.970Z,98913.12
2023-02-03T08:08:10.976Z,98913.22
2023-02-03T08:09:11.040Z,98917.14
2023-02-03T08:10:11.837Z,98915.09
2023-02-03T08:11:11.263Z,98917.17
2023-02-03T08:12:11.039Z,98915.83
2023-02-03T08:13:11.088Z,98917.38
2023-02-03T08:14:11.109Z,98919.27
2023-02-03T08:15:11.349Z,98920.26
2023-02-03T08:16:11.190Z,98924.55
2023-02-03T08:17:11.144Z,98923.42
2023-02-03T08:18:11.231Z,98925.98
2023-02-03T08:19:11.500Z,98926.87
2023-02-03T08:20:11.947Z,98925.55
2023-02-03T08:21:11.284Z,98927.56
2023-02-03T08:22:11.347Z,98924.22
2023-02-03T08:23:11.223Z,98924.56
2023-02-03T08:24:11.334Z,98921.52
2023-02-03T08:25:11.717Z,98931.06
2023-02-03T08:26:11.284Z,98926.54
2023-02-03T08:27:11.970Z,98927.33
2023-02-03T08:28:11.358Z,98933.42
2023-02-03T08:29:11.347Z,98932.55
2023-02-03T08:30:12.837Z,98932.47
2023-02-03T08:31:12.159Z,98934.9
2023-02-03T08:32:12.292Z,98932.13
2023-02-03T08:33:11.415Z,98934.36
2023-02-03T08:34:11.414Z,98934.35
2023-02-03T08:35:11.464Z,98933.94
2023-02-03T08:36:11.706Z,98931.34
2023-02-03T08:37:12.633Z,98933.42
2023-02-03T08:38:11.470Z,98934.98
2023-02-03T08:39:11.944Z,98938.31
2023-02-03T08:40:12.243Z,98936.61
2023-02-03T08:41:13.281Z,98936.59
2023-02-03T08:42:11.619Z,98936.73
2023-02-03T08:43:11.594Z,98936.52
2023-02-03T08:44:11.566Z,98932.3
2023-02-03T08:45:11.634Z,98932.88
2023-02-03T08:46:12.950Z,98935.28
2023-02-03T08:47:11.915Z,98936.92
2023-02-03T08:48:11.658Z,98937.42
2023-02-03T08:49:11.799Z,98940.1
2023-02-03T08:50:12.401Z,98939.09
2023-02-03T08:51:12.986Z,98942.67
2023-02-03T08:52:13.110Z,98939.41
2023-02-03T08:53:11.751Z,98942.89
2023-02-03T08:54:12.012Z,98942.67
2023-02-03T08:55:11.738Z,98942.9
2023-02-03T08:56:12.507Z,98942.08
2023-02-03T08:57:11.820Z,98946.05
2023-02-03T08:58:11.799Z,98938.24
2023-02-03T08:59:12.213Z,98938.05
2023-02-03T09:00:12.464Z,98941.56
2023-02-03T09:01:13.954Z,98936.52
2023-02-03T09:02:14.638Z,98937.77
2023-02-03T09:03:11.899Z,98938.27
2023-02-03T09:04:12.531Z,98936.86
2023-02-03T09:05:12.035Z,98935.14
2023-02-03T09:06:12.135Z,98935.76
2023-02-03T09:07:12.183Z,98931.96
2023-02-03T09:08:12.125Z,98932.07
2023-02-03T09:09:12.128Z,98932.96
2023-02-03T09:10:12.134Z,98926.73
2023-02-03T09:11:13.165Z,98922.44
2023-02-03T09:12:12.815Z,98928.99
2023-02-03T09:13:12.270Z,98925.12
2023-02-03T09:14:12.200Z,98928.25
2023-02-03T09:15:12.090Z,98929.23
2023-02-03T09:16:12.842Z,98930.66
2023-02-03T09:17:12.110Z,98933.59
2023-02-03T09:18:12.304Z,98930.2
2023-02-03T09:19:12.161Z,98930.3
2023-02-03T09:20:12.395Z,98926.33
2023-02-03T09:21:20.863Z,98927.96
2023-02-03T09:22:13.251Z,98928.9
2023-02-03T09:23:13.107Z,98928.7
2023-02-03T09:24:13.133Z,98926.73
2023-02-03T09:25:13.693Z,98925.79
2023-02-03T09:26:14.475Z,98928.84
2023-02-03T09:27:13.123Z,98930.69
2023-02-03T09:28:13.882Z,98929.14
2023-02-03T09:29:14.659Z,98926.12
2023-02-03T09:30:14.196Z,98927.78
2023-02-03T09:31:15.000Z,98925.42
2023-02-03T09:32:15.478Z,98929.68
2023-02-03T09:33:13.961Z,98933.08
2023-02-03T09:34:13.933Z,98928.17
2023-02-03T09:35:14.130Z,98925.41
2023-02-03T09:36:14.154Z,98929.13
2023-02-03T09:37:13.959Z,98926.23
2023-02-03T09:38:13.970Z,98930.22
2023-02-03T09:39:14.533Z,98926.12
2023-02-03T09:42:28.229Z,98933.74
2023-02-03T09:45:27.190Z,98936.56
2023-02-03T09:46:27.673Z,98936.38
2023-02-03T09:47:29.491Z,98933.91
2023-02-03T09:50:32.258Z,98929.88
2023-02-03T09:51:34.140Z,98930.69
2023-02-03T09:52:35.575Z,98930.29
2023-02-03T09:53:41.515Z,98932.91
2023-02-03T09:54:39.168Z,98927.97
2023-02-03T09:55:42.870Z,98932.53
2023-02-03T09:56:39.592Z,98930.08
2023-02-03T09:58:40.239Z,98926.23
2023-02-03T09:59:40.420Z,98929.72
2023-02-03T10:00:45.081Z,98930.47
2023-02-03T10:05:01.156Z,98930.17
2023-02-03T10:15:24.551Z,98925.56
2023-02-03T10:16:28.135Z,98931.61
2023-02-03T10:17:32.280Z,98931.07
2023-02-03T10:18:29.291Z,98931.86
2023-02-03T10:19:28.261Z,98933.17
2023-02-03T10:22:34.663Z,98924.52
2023-02-03T10:23:33.917Z,98927.59
2023-02-03T10:25:39.829Z,98927.68
2023-02-03T10:26:38.355Z,98926.06
2023-02-03T10:27:37.290Z,98923.44
2023-02-03T10:28:39.121Z,98921.79
2023-02-03T10:29:39.345Z,98925.85
2023-02-03T10:30:41.236Z,98926.71
2023-02-03T10:31:37.695Z,98923.36
2023-02-03T10:32:37.844Z,98920.88
2023-02-03T10:33:37.578Z,98925.95
2023-02-03T10:34:38.052Z,98924.81
2023-02-03T10:35:46.591Z,98925.81
2023-02-03T10:37:49.736Z,98931.7
2023-02-03T10:38:59.429Z,98927.5
2023-02-03T10:39:51.909Z,98931.83
2023-02-03T10:40:51.448Z,98930.67
2023-02-03T10:41:51.272Z,98932.19
2023-02-03T10:42:51.415Z,98931.78
2023-02-03T10:43:52.801Z,98929.95
2023-02-03T10:44:59.859Z,98928.05
2023-02-03T10:45:51.737Z,98927.19
2023-02-03T10:46:51.628Z,98925.48
2023-02-03T10:47:53.711Z,98923
2023-02-03T10:48:51.747Z,98929.49
2023-02-03T10:49:53.053Z,98922.89
2023-02-03T10:50:52.237Z,98928.64
2023-02-03T10:51:52.863Z,98927.48
2023-02-03T10:52:51.788Z,98926.59
2023-02-03T10:53:52.537Z,98920.17
2023-02-03T10:54:52.324Z,98920.42
2023-02-03T10:56:00.957Z,98921.42
2023-02-03T10:56:52.639Z,98923.53
2023-02-03T10:57:53.447Z,98918.69
2023-02-03T10:58:54.342Z,98919.68
2023-02-03T11:00:02.719Z,98916.89
2023-02-03T11:00:55.376Z,98918.21
2023-02-03T11:01:54.605Z,98917.51
2023-02-03T11:03:08.412Z,98916.36
2023-02-03T11:04:01.605Z,98915.21
2023-02-03T11:05:11.789Z,98916.53
2023-02-03T11:06:08.803Z,98916.14
2023-02-03T11:07:07.791Z,98917.56
2023-02-03T11:08:06.371Z,98920.35
2023-02-03T11:11:09.289Z,98919.7
2023-02-03T11:14:16.243Z,98916.25
2023-02-03T11:15:14.540Z,98912.91
2023-02-03T11:17:17.299Z,98910.84
2023-02-03T11:19:20.715Z,98915.56
2023-02-03T11:20:17.482Z,98912.83
2023-02-03T11:21:19.585Z,98915.73
2023-02-03T11:23:22.714Z,98915.81
2023-02-03T11:24:21.585Z,98918.3
2023-02-03T11:25:28.015Z,98915.7
2023-02-03T11:26:26.384Z,98914.19
2023-02-03T11:27:25.136Z,98916.78
2023-02-03T11:28:27.518Z,98918.47
2023-02-03T11:29:26.371Z,98919.38
2023-02-03T11:30:26.862Z,98919.3
2023-02-03T11:31:26.025Z,98921.58
2023-02-03T11:32:29.443Z,98921.62
2023-02-03T11:33:27.430Z,98924.44
2023-02-03T11:34:30.943Z,98921.08
2023-02-03T11:35:28.472Z,98921.77
2023-02-03T11:36:28.731Z,98922.91
2023-02-03T11:38:29.701Z,98930.22
2023-02-03T11:39:29.439Z,98935.53
2023-02-03T11:40:30.106Z,98924.66
2023-02-03T11:42:33.646Z,98925.17
2023-02-03T11:43:32.575Z,98928.23
2023-02-03T11:44:32.604Z,98928.8
2023-02-03T11:46:36.930Z,98925.31
2023-02-03T11:47:34.044Z,98925.25
2023-02-03T12:20:14.021Z,98890.26
2023-02-03T12:26:30.732Z,98891.12
2023-02-03T12:29:35.192Z,98900.97
2023-02-03T12:30:39.000Z,98900.36
2023-02-03T12:31:46.855Z,98899.26
2023-02-03T12:32:42.488Z,98903.25
2023-02-03T12:38:58.738Z,98900.47
2023-02-03T12:40:59.139Z,98901.88
2023-02-03T12:42:00.499Z,98899.53
2023-02-03T12:42:59.960Z,98904.91
2023-02-03T12:44:01.732Z,98904.24
2023-02-03T12:45:06.634Z,98908.91
2023-02-03T12:46:06.815Z,98909.36
2023-02-03T12:47:07.390Z,98910.5
2023-02-03T12:51:13.758Z,98909.86
2023-02-03T12:55:25.131Z,98903.72
2023-02-03T12:56:27.689Z,98909.46
2023-02-03T12:57:29.356Z,98905.45
2023-02-03T12:58:34.274Z,98907.14
2023-02-03T12:59:29.497Z,98906.32
2023-02-03T13:01:40.125Z,98909.11
2023-02-03T13:02:34.730Z,98902.27
2023-02-03T13:05:42.961Z,98905.92
2023-02-03T13:06:44.263Z,98905.31
2023-02-03T13:07:47.317Z,98909.41
2023-02-03T13:08:49.797Z,98911.78
2023-02-03T13:12:01.502Z,98917.67
2023-02-03T13:12:58.753Z,98918.36
2023-02-03T13:14:10.588Z,98915.22
2023-02-03T13:16:06.436Z,98914.55
2023-02-03T13:19:14.957Z,98915.16
2023-02-03T13:20:15.561Z,98912.14
2023-02-03T13:21:12.662Z,98914.89
2023-02-03T13:22:13.560Z,98913.58
2023-02-03T13:23:13.443Z,98909.73
2023-02-03T13:24:12.523Z,98914.48
2023-02-03T13:41:53.612Z,98915.66
2023-02-03T13:42:57.394Z,98923.42
2023-02-03T13:43:54.990Z,98921.86
2023-02-03T13:44:59.470Z,98922.78
2023-02-03T13:45:56.248Z,98921.45
2023-02-03T13:46:57.494Z,98921.66
2023-02-03T13:48:58.978Z,98922.44
2023-02-03T13:51:59.905Z,98924.79
2023-02-03T13:54:05.969Z,98926.9
2023-02-03T13:55:03.219Z,98925.59
2023-02-03T13:56:04.672Z,98924.34
2023-02-03T13:57:04.010Z,98919.76
2023-02-03T13:58:03.412Z,98919.24
2023-02-03T14:07:34.473Z,98932.17
2023-02-03T14:09:36.288Z,98939.57
2023-02-03T14:10:32.509Z,98944.75
2023-02-03T14:12:36.288Z,98946.23
2023-02-03T14:13:35.272Z,98942.86
2023-02-03T14:15:36.499Z,98945.42
2023-02-03T14:16:37.330Z,98944.31
2023-02-03T14:18:45.070Z,98943.02
2023-02-03T14:19:54.798Z,98946.45
2023-02-03T14:20:48.472Z,98949.94
2023-02-03T14:21:50.800Z,98948.45
2023-02-03T14:22:48.433Z,98949.61
2023-02-03T14:23:50.227Z,98948.73
2023-02-03T14:24:48.250Z,98954.33
2023-02-03T14:25:58.283Z,98948.75
2023-02-03T14:26:51.345Z,98946.93
2023-02-03T14:27:59.610Z,98953.06
2023-02-03T14:28:53.840Z,98951
2023-02-03T14:31:58.326Z,98948.59